Time;durP1;ratioP1;P1;durP2;ratioP2;P2;SDS_P1;SDS_P2;PMS_P1;PMS_P2;Temp;Humidity;BMP_temperature;BMP_pressure;BME280_temperature;BME280_humidity;BME280_pressure;Samples;Min_cycle;Max_cycle;Signal;HPM_P1;HPM_P2
2021/12/12 00:02:34;;;;;;;94.35;41.03;;;;;;;2.55;100.00;101751.03;4889203;29;20227;-84
2021/12/12 00:05:07;;;;;;;109.03;41.80;;;;;;;2.52;100.00;101746.59;4890727;29;20169;-84
2021/12/12 00:07:34;;;;;;;111.25;43.15;;;;;;;2.49;100.00;101749.19;4857459;29;20225;-82
2021/12/12 00:10:06;;;;;;;102.55;43.97;;;;;;;2.53;100.00;101752.78;4871821;29;20201;-84
2021/12/12 00:12:39;;;;;;;108.60;44.22;;;;;;;2.56;100.00;101759.00;4886091;29;20269;-82
2021/12/12 00:15:07;;;;;;;101.80;43.17;;;;;;;2.59;100.00;101756.38;4887360;29;20170;-83
2021/12/12 00:17:33;;;;;;;93.45;40.95;;;;;;;2.62;100.00;101759.06;4858408;29;20641;-83
2021/12/12 00:19:59;;;;;;;102.55;44.20;;;;;;;2.61;100.00;101770.50;4852509;29;20198;-84
2021/12/12 00:22:27;;;;;;;108.30;44.78;;;;;;;2.66;100.00;101770.53;4856501;29;20194;-83
2021/12/12 00:24:54;;;;;;;84.95;41.10;;;;;;;2.67;100.00;101761.75;4854755;29;20561;-84
2021/12/12 00:27:21;;;;;;;87.10;42.33;;;;;;;2.71;100.00;101760.00;4871008;29;20186;-83
2021/12/12 00:29:49;;;;;;;93.72;43.72;;;;;;;2.68;100.00;101764.38;4854722;29;20208;-82
2021/12/12 00:32:17;;;;;;;80.25;40.90;;;;;;;2.73;100.00;101769.72;4855014;29;20206;-83
2021/12/12 00:34:51;;;;;;;81.38;43.42;;;;;;;2.70;100.00;101772.34;4853971;29;20184;-84
2021/12/12 00:37:18;;;;;;;88.10;43.97;;;;;;;2.69;100.00;101754.72;4869010;29;20192;-84
2021/12/12 00:39:50;;;;;;;93.75;44.78;;;;;;;2.70;100.00;101776.75;4853823;29;20208;-84
2021/12/12 00:42:25;;;;;;;87.65;44.75;;;;;;;2.69;100.00;101773.22;4853412;29;20312;-84
2021/12/12 00:44:55;;;;;;;87.95;44.78;;;;;;;2.71;100.00;101773.22;4851421;29;20669;-84
2021/12/12 00:47:22;;;;;;;81.47;44.28;;;;;;;2.69;100.00;101765.28;4850561;29;20670;-84
2021/12/12 00:49:48;;;;;;;81.15;43.22;;;;;;;2.72;100.00;101770.59;4871061;29;20198;-84
2021/12/12 00:52:17;;;;;;;74.68;42.40;;;;;;;2.68;100.00;101774.09;4869291;29;20541;-82
2021/12/12 00:54:44;;;;;;;76.70;42.67;;;;;;;2.64;100.00;101785.50;4868040;29;20189;-82
2021/12/12 00:57:13;;;;;;;79.03;43.83;;;;;;;2.70;100.00;101784.69;4984278;23;20229;-83
2021/12/12 00:59:41;;;;;;;77.57;43.30;;;;;;;2.58;100.00;101801.31;4878065;29;20193;-82
2021/12/12 01:02:09;;;;;;;78.88;44.33;;;;;;;2.52;100.00;101788.06;4887861;29;20280;-82
2021/12/12 01:04:42;;;;;;;79.43;44.83;;;;;;;2.52;100.00;101796.88;4866390;29;20220;-81
2021/12/12 01:07:12;;;;;;;80.00;44.28;;;;;;;2.41;100.00;101788.81;4881472;29;20249;-81
2021/12/12 01:10:07;;;;;;;74.68;43.03;;;;;;;2.38;100.00;101795.81;4885525;29;20272;-81
2021/12/12 01:12:33;;;;;;;68.75;42.70;;;;;;;2.29;100.00;101786.03;4864153;29;20217;-82
2021/12/12 01:15:10;;;;;;;68.97;42.40;;;;;;;2.28;100.00;101796.59;4885938;29;20282;-82
2021/12/12 01:17:41;;;;;;;66.70;41.58;;;;;;;2.33;100.00;101795.78;4867010;29;20193;-82
2021/12/12 01:20:21;;;;;;;71.38;41.55;;;;;;;2.31;100.00;101805.44;4852536;29;20177;-83
2021/12/12 01:23:09;;;;;;;71.10;41.70;;;;;;;2.21;100.00;101811.50;4868628;29;20185;-82
2021/12/12 01:25:43;;;;;;;61.47;40.28;;;;;;;2.22;100.00;101811.50;4886677;29;20165;-82
2021/12/12 01:28:10;;;;;;;59.05;37.45;;;;;;;2.13;100.00;101810.53;4868523;29;20555;-81
2021/12/12 01:30:36;;;;;;;56.97;38.53;;;;;;;2.10;100.00;101814.03;4866229;29;20292;-83
2021/12/12 01:33:01;;;;;;;60.80;37.53;;;;;;;2.13;100.00;101813.16;4868694;29;20217;-82
2021/12/12 01:35:28;;;;;;;58.20;36.38;;;;;;;2.11;100.00;101812.25;4867011;29;20247;-82
2021/12/12 01:40:44;;;;;;;59.25;36.47;;;;;;;2.03;100.00;101805.13;4866616;29;20213;-82
2021/12/12 01:43:20;;;;;;;62.08;37.15;;;;;;;2.08;100.00;101809.56;4867086;29;20174;-82
2021/12/12 01:48:31;;;;;;;60.65;37.10;;;;;;;2.12;100.00;101817.56;4893544;29;20689;-82
2021/12/12 01:51:00;;;;;;;68.47;37.08;;;;;;;2.03;100.00;101826.28;4879857;29;20209;-82
2021/12/12 01:53:29;;;;;;;67.32;38.67;;;;;;;1.98;100.00;101824.44;4852835;29;20253;-82
2021/12/12 01:56:19;;;;;;;70.47;38.75;;;;;;;1.98;100.00;101821.78;4866998;29;20640;-82
2021/12/12 01:58:48;;;;;;;67.18;38.80;;;;;;;2.00;100.00;101820.94;4870489;29;20173;-83
2021/12/12 02:01:18;;;;;;;72.07;38.42;;;;;;;2.07;100.00;101827.19;4887968;29;20197;-81
2021/12/12 02:04:01;;;;;;;69.57;38.33;;;;;;;2.04;100.00;101817.47;4872389;29;20177;-83
2021/12/12 02:06:27;;;;;;;72.70;38.00;;;;;;;1.95;100.00;101817.34;4870089;29;20619;-83
2021/12/12 02:08:55;;;;;;;67.75;38.83;;;;;;;1.95;100.00;101821.75;4874391;29;20200;-82
2021/12/12 02:11:29;;;;;;;70.57;37.00;;;;;;;1.88;100.00;101819.88;4878769;29;20264;-81
2021/12/12 02:13:57;;;;;;;69.13;37.03;;;;;;;1.86;100.00;101827.81;4887296;29;20210;-81
2021/12/12 02:16:27;;;;;;;69.55;36.72;;;;;;;1.91;100.00;101806.72;4871426;29;20200;-82
2021/12/12 02:18:57;;;;;;;67.10;35.00;;;;;;;1.85;100.00;101813.69;4860267;29;20180;-82
2021/12/12 02:21:34;;;;;;;67.03;33.97;;;;;;;1.88;100.00;101810.22;4867442;29;20216;-83
2021/12/12 02:35:19;;;;;;;61.58;29.85;;;;;;;1.74;100.00;101811.78;4867544;29;20252;-82
2021/12/12 02:37:46;;;;;;;59.53;29.33;;;;;;;1.71;100.00;101827.59;4851927;29;20177;-81
2021/12/12 02:40:23;;;;;;;56.92;27.73;;;;;;;1.72;100.00;101817.03;4866898;29;20165;-83
2021/12/12 02:42:49;;;;;;;60.03;27.13;;;;;;;1.69;100.00;101824.03;4867081;29;20176;-83
2021/12/12 02:45:17;;;;;;;56.70;27.55;;;;;;;1.76;100.00;101817.97;4884147;29;20192;-83
2021/12/12 02:47:45;;;;;;;55.63;27.85;;;;;;;1.67;100.00;101826.66;4883098;29;20248;-83
2021/12/12 02:50:19;;;;;;;57.97;27.52;;;;;;;1.66;100.00;101822.22;4883514;29;20698;-84
2021/12/12 02:52:56;;;;;;;56.95;28.17;;;;;;;1.72;100.00;101816.16;4882333;29;20217;-83
2021/12/12 02:55:27;;;;;;;56.17;27.67;;;;;;;1.70;100.00;101823.16;4867898;29;20212;-83
2021/12/12 02:57:55;;;;;;;60.72;28.33;;;;;;;1.68;100.00;101833.69;4884259;29;20182;-83
2021/12/12 03:00:25;;;;;;;58.65;28.10;;;;;;;1.61;100.00;101830.06;4884759;29;20165;-83
2021/12/12 03:02:57;;;;;;;54.60;27.55;;;;;;;1.63;100.00;101835.38;4868026;29;20198;-83
2021/12/12 03:05:26;;;;;;;60.97;28.55;;;;;;;1.68;100.00;101841.63;4883476;29;20185;-83
2021/12/12 03:07:52;;;;;;;61.35;27.20;;;;;;;1.63;100.00;101824.81;4888437;29;20177;-83
2021/12/12 03:10:28;;;;;;;60.40;28.05;;;;;;;1.64;100.00;101838.06;4874181;29;20193;-83
2021/12/12 03:12:54;;;;;;;59.78;27.85;;;;;;;1.59;100.00;101837.09;4866165;29;20209;-83
2021/12/12 03:15:24;;;;;;;66.25;29.27;;;;;;;1.68;100.00;101843.38;4871006;29;20546;-83
2021/12/12 03:17:53;;;;;;;66.75;29.83;;;;;;;1.62;100.00;101849.47;4868845;29;20191;-82
2021/12/12 03:20:32;;;;;;;71.20;30.02;;;;;;;1.64;100.00;101850.38;4875911;29;20205;-82
2021/12/12 03:23:09;;;;;;;68.55;29.27;;;;;;;1.64;100.00;101846.00;4845231;29;20170;-85
2021/12/12 03:25:38;;;;;;;67.78;30.50;;;;;;;1.63;100.00;101846.84;4861755;29;20201;-83
2021/12/12 03:28:07;;;;;;;65.53;28.80;;;;;;;1.68;100.00;101849.53;4844700;29;20182;-81
2021/12/12 03:33:08;;;;;;;68.93;29.33;;;;;;;1.65;100.00;101842.47;4886748;23;20276;-82
2021/12/12 03:35:34;;;;;;;62.30;29.33;;;;;;;1.64;100.00;101843.34;4848096;29;20198;-82
2021/12/12 03:38:00;;;;;;;69.55;28.95;;;;;;;1.68;100.00;101844.25;4849100;29;20186;-82
2021/12/12 03:40:32;;;;;;;73.88;30.17;;;;;;;1.70;100.00;101847.81;4849297;29;20225;-81
2021/12/12 03:42:59;;;;;;;65.70;29.42;;;;;;;1.71;100.00;101849.59;4848049;29;20239;-80
2021/12/12 03:45:27;;;;;;;64.72;28.02;;;;;;;1.76;100.00;101834.69;4848507;29;20553;-81
2021/12/12 03:47:57;;;;;;;68.90;29.35;;;;;;;1.84;100.00;101838.34;4848050;29;20607;-83
2021/12/12 03:50:28;;;;;;;70.22;29.58;;;;;;;1.75;100.00;101826.75;4848644;29;20667;-82
2021/12/12 03:52:54;;;;;;;67.18;29.70;;;;;;;1.76;100.00;101844.38;4847352;29;20178;-81
2021/12/12 03:55:22;;;;;;;68.57;28.88;;;;;;;1.75;100.00;101839.94;4831072;29;20659;-82
2021/12/12 03:57:48;;;;;;;65.40;29.30;;;;;;;1.78;100.00;101848.81;4846232;29;20223;-81
2021/12/12 04:00:27;;;;;;;66.68;29.67;;;;;;;1.78;100.00;101837.38;4855168;29;20186;-82
2021/12/12 04:02:53;;;;;;;70.00;29.10;;;;;;;1.77;100.00;101843.50;4845474;29;20193;-81
2021/12/12 04:07:47;;;;;;;70.57;30.35;;;;;;;1.77;100.00;101832.94;4880429;29;20201;-83
2021/12/12 04:10:17;;;;;;;78.40;30.70;;;;;;;1.81;100.00;101834.75;4877794;29;20212;-83
2021/12/12 04:12:44;;;;;;;75.28;30.17;;;;;;;1.81;100.00;101838.28;4864959;29;20226;-83
2021/12/12 04:15:10;;;;;;;75.50;31.23;;;;;;;1.79;100.00;101833.84;4885617;29;20181;-83
2021/12/12 04:17:36;;;;;;;94.20;30.90;;;;;;;1.80;100.00;101830.34;4885563;29;20217;-83
2021/12/12 04:20:11;;;;;;;82.07;32.95;;;;;;;1.83;100.00;101823.34;4880479;29;20229;-83
2021/12/12 04:22:37;;;;;;;95.45;33.65;;;;;;;1.85;100.00;101826.91;4852481;29;20221;-84
2021/12/12 04:25:05;;;;;;;83.95;33.25;;;;;;;1.83;100.00;101823.34;4851103;29;20230;-83
2021/12/12 04:27:30;;;;;;;86.03;35.28;;;;;;;1.93;100.00;101832.28;4868270;29;20173;-83
2021/12/12 04:29:56;;;;;;;85.97;33.13;;;;;;;1.85;100.00;101824.25;4849284;29;20747;-83
2021/12/12 04:32:25;;;;;;;88.38;32.83;;;;;;;1.88;100.00;101830.44;4870025;29;20221;-85
2021/12/12 04:35:00;;;;;;;91.15;34.17;;;;;;;1.88;100.00;101828.72;4847516;29;20166;-83
2021/12/12 04:37:27;;;;;;;90.50;34.10;;;;;;;1.89;100.00;101829.59;4867850;29;20718;-84
2021/12/12 04:39:57;;;;;;;84.72;34.75;;;;;;;1.97;100.00;101823.53;4869095;29;20174;-83
2021/12/12 04:42:31;;;;;;;91.70;34.42;;;;;;;1.98;100.00;101816.50;4888704;29;20216;-82
2021/12/12 04:45:12;;;;;;;105.05;34.30;;;;;;;1.92;100.00;101825.22;4871512;29;20160;-83
2021/12/12 04:51:19;;;;;;;99.47;34.55;;;;;;;1.95;100.00;101814.72;4885299;29;20205;-83
2021/12/12 04:53:59;;;;;;;95.05;35.00;;;;;;;1.97;100.00;101823.53;4868277;29;20504;-84
2021/12/12 04:56:52;;;;;;;92.15;34.58;;;;;;;1.96;100.00;101827.03;4851440;29;20718;-83
2021/12/12 04:59:32;;;;;;;90.07;34.95;;;;;;;2.01;100.00;101819.16;4869117;29;20225;-83
2021/12/12 05:02:19;;;;;;;90.95;34.25;;;;;;;1.97;100.00;101812.97;4884451;29;20193;-81
2021/12/12 05:05:07;;;;;;;89.60;35.15;;;;;;;1.97;100.00;101809.44;4884599;29;20186;-82
2021/12/12 05:07:54;;;;;;;90.30;35.40;;;;;;;2.04;100.00;101819.22;4880852;29;20190;-82
2021/12/12 05:10:29;;;;;;;87.90;36.00;;;;;;;2.00;100.00;101810.34;4866128;29;20649;-83
2021/12/12 05:13:02;;;;;;;95.45;34.58;;;;;;;1.97;100.00;101810.34;4866085;29;20173;-83
2021/12/12 05:15:38;;;;;;;86.65;35.83;;;;;;;2.00;100.00;101804.19;4865630;29;20213;-83
2021/12/12 05:18:22;;;;;;;87.38;35.78;;;;;;;1.97;100.00;101805.03;4850189;29;20177;-83
2021/12/12 05:20:54;;;;;;;85.22;34.40;;;;;;;1.96;100.00;101803.25;4836998;29;20206;-82
2021/12/12 05:23:24;;;;;;;94.97;35.80;;;;;;;1.98;100.00;101800.63;4830423;29;20211;-83
2021/12/12 05:26:09;;;;;;;87.10;34.55;;;;;;;1.98;100.00;101803.28;4846846;29;20187;-82
2021/12/12 05:28:43;;;;;;;92.57;35.13;;;;;;;2.00;100.00;101797.16;4830696;29;20239;-82
2021/12/12 05:31:11;;;;;;;89.07;35.45;;;;;;;1.96;100.00;101799.72;4816299;29;20262;-82
2021/12/12 05:33:37;;;;;;;94.72;35.28;;;;;;;1.94;100.00;101791.78;4847356;29;20214;-81
2021/12/12 05:36:07;;;;;;;84.82;34.75;;;;;;;1.98;100.00;101809.44;4829830;29;20174;-80
2021/12/12 05:38:33;;;;;;;80.47;33.55;;;;;;;1.99;100.00;101803.31;4848748;29;20187;-80
2021/12/12 05:40:59;;;;;;;82.35;33.28;;;;;;;1.99;100.00;101805.03;4832358;29;20306;-80
2021/12/12 05:43:25;;;;;;;81.22;33.15;;;;;;;2.01;100.00;101806.88;4833155;29;20174;-79
2021/12/12 05:45:52;;;;;;;76.47;33.10;;;;;;;2.03;100.00;101798.94;4851427;24;20238;-81
2021/12/12 05:48:20;;;;;;;73.32;33.70;;;;;;;2.02;100.00;101802.47;4850877;29;20194;-79
2021/12/12 05:50:46;;;;;;;76.20;32.70;;;;;;;2.00;100.00;101802.44;4868342;29;20213;-78
2021/12/12 05:53:14;;;;;;;76.05;32.38;;;;;;;2.02;100.00;101805.97;4883440;29;20596;-78
2021/12/12 05:55:44;;;;;;;72.70;32.00;;;;;;;2.01;100.00;101812.16;5022395;23;20173;-77
2021/12/12 05:58:13;;;;;;;79.43;33.47;;;;;;;2.03;100.00;101810.41;4896441;29;20247;-78
2021/12/12 06:00:46;;;;;;;76.10;32.25;;;;;;;2.01;100.00;101805.94;4862630;29;20370;-78
2021/12/12 06:03:15;;;;;;;68.35;30.27;;;;;;;2.03;100.00;101799.84;4881462;29;20162;-76
2021/12/12 06:05:41;;;;;;;77.68;32.13;;;;;;;2.09;100.00;101799.00;5046019;23;21388;-79
2021/12/12 06:08:08;;;;;;;67.95;29.90;;;;;;;2.06;100.00;101804.28;4865563;29;20199;-79
2021/12/12 06:10:36;;;;;;;69.00;30.60;;;;;;;2.08;100.00;101794.63;4892042;29;20239;-81
2021/12/12 06:13:04;;;;;;;55.78;28.20;;;;;;;2.13;100.00;101789.38;4861221;29;20173;-82
2021/12/12 06:15:31;;;;;;;60.90;29.20;;;;;;;2.06;100.00;101786.66;4879676;29;20173;-80
2021/12/12 06:17:58;;;;;;;64.78;29.55;;;;;;;2.08;100.00;101783.13;4862138;29;20192;-81
2021/12/12 06:20:26;;;;;;;63.35;28.10;;;;;;;2.14;100.00;101777.91;4862607;29;20177;-81
2021/12/12 06:22:53;;;;;;;63.78;29.08;;;;;;;2.14;100.00;101785.84;4862600;29;20533;-80
2021/12/12 06:25:19;;;;;;;55.08;26.85;;;;;;;2.10;100.00;101786.69;4879017;29;20180;-82
2021/12/12 06:27:44;;;;;;;57.30;27.48;;;;;;;2.13;100.00;101771.75;4879252;29;20181;-80
2021/12/12 06:30:14;;;;;;;61.50;28.55;;;;;;;2.13;100.00;101773.50;4878393;29;20229;-81
2021/12/12 06:32:42;;;;;;;56.35;28.05;;;;;;;2.13;100.00;101770.88;4879056;29;20320;-80
2021/12/12 06:35:09;;;;;;;55.65;27.40;;;;;;;2.13;100.00;101766.47;4878824;29;20181;-81
2021/12/12 06:37:36;;;;;;;61.42;27.85;;;;;;;2.12;100.00;101766.44;4846685;29;20249;-83
2021/12/12 06:40:07;;;;;;;57.20;28.63;;;;;;;2.15;100.00;101763.84;4856526;29;20193;-81
2021/12/12 06:42:33;;;;;;;54.58;26.95;;;;;;;2.18;100.00;101758.59;4841515;29;20393;-80
2021/12/12 06:44:58;;;;;;;55.00;26.83;;;;;;;2.14;100.00;101755.00;4842334;29;20182;-81
2021/12/12 06:47:24;;;;;;;56.88;27.90;;;;;;;2.14;100.00;101756.78;4825105;29;20206;-81
2021/12/12 06:49:50;;;;;;;55.67;27.42;;;;;;;2.16;100.00;101752.38;4825465;29;20205;-80
2021/12/12 06:52:18;;;;;;;53.97;27.13;;;;;;;2.16;100.00;101747.09;4841276;29;20203;-81
2021/12/12 06:54:43;;;;;;;50.72;26.63;;;;;;;2.20;100.00;101741.84;4841403;29;20179;-80
2021/12/12 06:57:14;;;;;;;50.70;26.58;;;;;;;2.21;100.00;101732.19;4840988;29;20175;-80
2021/12/12 06:59:44;;;;;;;53.35;26.50;;;;;;;2.18;100.00;101730.38;4841702;29;20186;-80
2021/12/12 07:02:10;;;;;;;51.38;27.13;;;;;;;2.19;100.00;101723.34;4825261;29;20199;-83
2021/12/12 07:04:38;;;;;;;53.10;27.55;;;;;;;2.19;100.00;101726.88;4825160;29;20179;-80
2021/12/12 07:07:05;;;;;;;52.42;26.50;;;;;;;2.29;100.00;101706.69;4841068;29;20668;-80
2021/12/12 07:09:35;;;;;;;53.65;26.67;;;;;;;2.23;100.00;101701.34;4849124;29;20213;-80
2021/12/12 07:12:04;;;;;;;56.08;28.27;;;;;;;2.27;100.00;101708.44;4879743;29;20197;-80
2021/12/12 07:14:32;;;;;;;58.95;28.27;;;;;;;2.23;100.00;101711.91;4879370;29;20177;-80
2021/12/12 07:16:58;;;;;;;58.75;28.05;;;;;;;2.20;100.00;101701.31;4880615;29;20189;-81
2021/12/12 07:19:25;;;;;;;58.13;29.20;;;;;;;2.25;100.00;101710.19;4880387;29;20164;-79
2021/12/12 07:21:50;;;;;;;56.60;28.17;;;;;;;2.27;100.00;101713.72;4879254;29;20219;-79
2021/12/12 07:24:18;;;;;;;54.03;28.88;;;;;;;2.28;100.00;101707.59;4880273;29;20173;-79
2021/12/12 07:26:43;;;;;;;56.28;28.40;;;;;;;2.30;100.00;101723.47;4878302;29;20189;-79
2021/12/12 07:29:10;;;;;;;56.42;27.80;;;;;;;2.31;100.00;101712.88;4880055;29;20205;-79
2021/12/12 07:31:38;;;;;;;61.85;29.35;;;;;;;2.35;100.00;101713.81;4881016;29;20205;-80
2021/12/12 07:34:09;;;;;;;55.00;27.60;;;;;;;2.34;100.00;101719.97;4864077;29;20306;-79
2021/12/12 07:36:40;;;;;;;56.17;28.70;;;;;;;2.38;100.00;101722.66;4878059;29;20225;-81
2021/12/12 07:39:10;;;;;;;62.33;30.02;;;;;;;2.37;100.00;101710.31;4848579;29;20616;-79
2021/12/12 07:41:38;;;;;;;60.33;31.42;;;;;;;2.40;100.00;101710.31;4868676;29;20205;-79
2021/12/12 07:44:08;;;;;;;66.13;30.13;;;;;;;2.40;100.00;101714.75;4884618;29;20174;-79
2021/12/12 07:46:34;;;;;;;61.17;29.42;;;;;;;2.41;100.00;101706.81;4883565;29;20224;-79
2021/12/12 07:49:01;;;;;;;62.25;31.08;;;;;;;2.44;100.00;101711.25;4866768;29;20209;-79
2021/12/12 07:51:27;;;;;;;60.80;30.38;;;;;;;2.48;100.00;101718.34;4863271;29;20201;-79
2021/12/12 07:53:57;;;;;;;59.67;30.55;;;;;;;2.48;100.00;101711.28;4863830;29;20178;-81
2021/12/12 07:56:26;;;;;;;57.92;29.30;;;;;;;2.58;100.00;101698.16;4866314;29;20361;-79
2021/12/12 07:58:52;;;;;;;60.75;30.05;;;;;;;2.55;100.00;101703.41;4865562;29;20165;-80
2021/12/12 08:01:19;;;;;;;57.20;30.52;;;;;;;2.53;100.00;101694.59;4868359;29;20213;-79
2021/12/12 08:03:45;;;;;;;59.97;32.03;;;;;;;2.54;100.00;101713.13;4863152;29;20527;-81
2021/12/12 08:06:14;;;;;;;56.70;30.77;;;;;;;2.57;100.00;101701.69;4860603;29;20201;-82
2021/12/12 08:08:42;;;;;;;60.60;29.55;;;;;;;2.58;100.00;101709.63;4849201;29;20181;-81
2021/12/12 08:11:08;;;;;;;59.55;30.25;;;;;;;2.60;100.00;101706.97;4864871;29;20197;-81
2021/12/12 08:13:35;;;;;;;59.28;28.48;;;;;;;2.63;100.00;101713.19;4880299;29;20181;-82
2021/12/12 08:16:05;;;;;;;56.92;29.60;;;;;;;2.62;100.00;101707.88;4847680;29;20193;-84
2021/12/12 08:18:32;;;;;;;59.70;29.58;;;;;;;2.62;100.00;101710.53;4863705;29;20181;-83
2021/12/12 08:20:59;;;;;;;60.50;29.20;;;;;;;2.64;100.00;101704.38;4850466;29;20198;-79
2021/12/12 08:23:25;;;;;;;53.45;29.58;;;;;;;2.61;100.00;101677.91;4835190;29;20657;-78
2021/12/12 08:25:54;;;;;;;63.45;30.88;;;;;;;2.64;100.00;101682.31;4848522;29;20191;-79
2021/12/12 08:28:20;;;;;;;60.75;30.15;;;;;;;2.65;100.00;101673.53;4816166;29;20171;-79
2021/12/12 08:30:46;;;;;;;61.42;29.92;;;;;;;2.64;100.00;101672.63;4846941;29;20211;-79
2021/12/12 08:33:12;;;;;;;62.13;29.88;;;;;;;2.66;100.00;101670.00;4849908;29;20266;-79
2021/12/12 08:35:39;;;;;;;60.28;28.58;;;;;;;2.66;100.00;101668.22;4849718;29;20221;-80
2021/12/12 08:38:06;;;;;;;59.10;28.48;;;;;;;2.68;100.00;101671.78;4849816;29;20187;-80
2021/12/12 08:40:38;;;;;;;56.40;28.95;;;;;;;2.71;100.00;101672.69;4827337;29;20203;-80
2021/12/12 08:43:12;;;;;;;56.72;27.60;;;;;;;2.69;100.00;101672.69;4849305;29;20206;-78
2021/12/12 08:45:44;;;;;;;58.60;28.88;;;;;;;2.71;100.00;101678.84;4849636;29;20347;-79
2021/12/12 08:48:11;;;;;;;54.65;26.60;;;;;;;2.70;100.00;101668.28;4832816;29;20186;-79
2021/12/12 08:50:39;;;;;;;59.83;28.70;;;;;;;2.70;100.00;101670.91;4833247;29;20203;-79
2021/12/12 08:53:07;;;;;;;62.92;28.70;;;;;;;2.72;100.00;101670.06;4848469;29;20718;-79
2021/12/12 08:55:38;;;;;;;59.17;29.35;;;;;;;2.76;100.00;101676.25;4832226;29;20254;-79
2021/12/12 08:58:15;;;;;;;50.45;26.38;;;;;;;2.78;100.00;101677.16;4832083;29;20221;-79
2021/12/12 09:00:50;;;;;;;58.10;27.73;;;;;;;2.79;100.00;101681.56;4830167;29;20294;-79
2021/12/12 09:03:22;;;;;;;54.22;26.92;;;;;;;2.82;100.00;101686.88;4857870;29;20598;-77
2021/12/12 09:05:48;;;;;;;57.35;26.17;;;;;;;2.80;100.00;101671.00;4864548;29;20169;-81
2021/12/12 09:08:20;;;;;;;52.08;26.15;;;;;;;2.81;100.00;101674.53;4881736;29;20253;-79
2021/12/12 09:10:53;;;;;;;50.03;24.98;;;;;;;2.86;100.00;101667.50;4864298;29;20292;-79
2021/12/12 09:13:29;;;;;;;51.10;25.48;;;;;;;2.85;100.00;101653.38;4849343;29;20262;-80
2021/12/12 09:16:11;;;;;;;57.72;25.40;;;;;;;2.96;100.00;101661.41;4880725;29;20169;-79
2021/12/12 09:18:58;;;;;;;45.47;24.35;;;;;;;2.95;100.00;101671.97;4864366;29;20189;-79
2021/12/12 09:21:29;;;;;;;50.38;23.23;;;;;;;2.99;100.00;101672.00;4838566;29;20233;-80
2021/12/12 09:24:11;;;;;;;48.03;22.02;;;;;;;3.01;100.00;101666.72;4846875;29;20231;-77
2021/12/12 09:26:43;;;;;;;50.80;22.75;;;;;;;3.01;100.00;101677.31;4848660;29;21004;-78
2021/12/12 09:29:17;;;;;;;42.55;20.52;;;;;;;3.02;100.00;101673.81;4881392;29;20258;-78
2021/12/12 09:31:54;;;;;;;44.75;20.23;;;;;;;3.06;100.00;101659.69;4881719;29;20242;-78
2021/12/12 09:34:38;;;;;;;40.88;20.08;;;;;;;3.10;100.00;101664.13;4882946;29;20172;-78
2021/12/12 09:37:15;;;;;;;40.05;19.25;;;;;;;3.13;100.00;101655.31;4870160;29;20177;-79
2021/12/12 09:39:58;;;;;;;40.35;18.98;;;;;;;3.16;100.00;101648.28;4872599;29;20181;-80
2021/12/12 09:42:46;;;;;;;37.47;18.00;;;;;;;3.19;100.00;101655.34;4849238;29;20318;-79
2021/12/12 09:45:36;;;;;;;36.30;17.58;;;;;;;3.23;100.00;101636.81;4877949;29;20584;-80
2021/12/12 09:51:32;;;;;;;28.85;14.65;;;;;;;3.28;100.00;101634.22;4870155;29;20674;-78
2021/12/12 09:54:13;;;;;;;31.50;15.10;;;;;;;3.31;100.00;101634.22;4821435;29;20660;-78
2021/12/12 09:56:57;;;;;;;27.02;13.48;;;;;;;3.30;100.00;101635.09;4886436;29;20222;-78
2021/12/12 10:00:00;;;;;;;28.10;14.38;;;;;;;3.33;100.00;101631.59;4864297;29;20177;-80
2021/12/12 10:02:44;;;;;;;24.67;14.57;;;;;;;3.35;100.00;101636.03;4881112;29;20201;-79
2021/12/12 10:05:19;;;;;;;27.25;13.55;;;;;;;3.37;100.00;101639.56;4864796;29;20264;-80
2021/12/12 10:07:55;;;;;;;27.77;13.98;;;;;;;3.44;100.00;101636.06;4853859;29;20197;-79
2021/12/12 10:10:32;;;;;;;22.77;12.25;;;;;;;3.41;100.00;101635.13;4850926;29;20205;-79
2021/12/12 10:13:26;;;;;;;20.73;11.30;;;;;;;3.44;100.00;101625.44;4867075;29;20173;-79
2021/12/12 10:15:57;;;;;;;21.20;11.88;;;;;;;3.43;100.00;101606.91;4850935;29;20241;-78
2021/12/12 10:18:40;;;;;;;23.27;12.05;;;;;;;3.41;100.00;101620.16;4860968;29;20185;-80
2021/12/12 10:21:13;;;;;;;21.40;10.95;;;;;;;3.45;100.00;101624.56;4866311;29;20204;-78
2021/12/12 10:24:28;;;;;;;19.05;10.82;;;;;;;3.47;100.00;101627.22;4849575;29;20165;-79
2021/12/12 10:27:17;;;;;;;19.20;10.15;;;;;;;3.51;100.00;101621.06;4845629;29;20235;-79
2021/12/12 10:30:05;;;;;;;17.13;9.60;;;;;;;3.54;100.00;101641.38;4859488;29;20222;-80
2021/12/12 10:32:36;;;;;;;16.25;9.20;;;;;;;3.55;100.00;101630.78;4844443;29;20289;-80
2021/12/12 10:35:10;;;;;;;14.98;9.20;;;;;;;3.51;100.00;101640.50;4860545;29;20176;-80
2021/12/12 10:37:58;;;;;;;14.55;8.35;;;;;;;3.52;100.00;101641.41;4860158;29;20186;-81
2021/12/12 10:40:51;;;;;;;12.10;7.47;;;;;;;3.52;100.00;101638.75;4861139;29;20265;-80
2021/12/12 10:43:25;;;;;;;11.13;7.13;;;;;;;3.57;100.00;101642.28;4851736;29;20178;-80
2021/12/12 10:45:58;;;;;;;10.00;7.38;;;;;;;3.53;100.00;101619.31;4812223;29;20548;-80
2021/12/12 10:48:38;;;;;;;10.35;7.05;;;;;;;3.55;100.00;101630.78;4843819;29;20218;-80
2021/12/12 10:51:20;;;;;;;10.77;6.63;;;;;;;3.59;100.00;101626.41;4813565;29;20596;-79
2021/12/12 10:54:05;;;;;;;11.13;5.85;;;;;;;3.60;100.00;101615.78;4827135;29;20592;-80
2021/12/12 10:56:40;;;;;;;9.73;5.93;;;;;;;3.60;100.00;101620.22;4826402;29;20227;-80
2021/12/12 10:59:21;;;;;;;8.88;6.03;;;;;;;3.60;100.00;101618.44;4843493;29;20179;-80
2021/12/12 11:01:49;;;;;;;7.88;5.15;;;;;;;3.60;100.00;101614.91;4842813;29;20294;-80
2021/12/12 11:04:23;;;;;;;7.38;5.55;;;;;;;3.63;100.00;101604.31;4843341;29;20270;-80
2021/12/12 11:06:53;;;;;;;7.47;5.75;;;;;;;3.64;100.00;101606.09;4812297;29;20190;-79
2021/12/12 11:09:40;;;;;;;6.85;5.25;;;;;;;3.64;100.00;101596.38;4847763;29;20236;-79
2021/12/12 11:12:28;;;;;;;8.60;5.13;;;;;;;3.63;100.00;101588.41;4831975;29;20207;-79
2021/12/12 11:15:00;;;;;;;8.85;5.70;;;;;;;3.65;100.00;101592.84;4848335;29;20186;-80
2021/12/12 11:17:31;;;;;;;5.97;4.85;;;;;;;3.70;100.00;101580.50;4821589;29;20544;-81
2021/12/12 11:20:24;;;;;;;6.47;4.70;;;;;;;3.67;100.00;101563.69;4843548;29;20209;-81
2021/12/12 11:22:59;;;;;;;6.55;4.57;;;;;;;3.68;100.00;101574.31;4861211;29;20186;-81
2021/12/12 11:25:29;;;;;;;5.80;4.75;;;;;;;3.67;100.00;101572.56;4843492;29;20177;-80
2021/12/12 11:28:04;;;;;;;6.68;5.50;;;;;;;3.67;100.00;101556.66;4859810;29;20716;-81
2021/12/12 11:30:52;;;;;;;8.40;5.50;;;;;;;3.69;100.00;101567.22;4842697;29;20248;-80
2021/12/12 11:33:20;;;;;;;9.27;5.30;;;;;;;3.68;100.00;101565.47;4861116;29;20230;-81
2021/12/12 11:35:50;;;;;;;7.35;5.88;;;;;;;3.69;100.00;101549.56;4828504;29;20174;-80
2021/12/12 11:38:45;;;;;;;7.85;6.10;;;;;;;3.70;100.00;101559.28;4873052;29;20185;-80
2021/12/12 11:41:18;;;;;;;9.10;6.30;;;;;;;3.78;100.00;101563.72;4859085;29;20268;-80
2021/12/12 11:44:08;;;;;;;6.93;5.65;;;;;;;3.76;100.00;101562.81;4842635;29;20572;-80
2021/12/12 11:46:53;;;;;;;7.68;6.57;;;;;;;3.75;100.00;101566.38;4859414;29;20226;-84
2021/12/12 11:49:27;;;;;;;8.18;5.93;;;;;;;3.73;100.00;101579.59;4874052;29;20239;-80
2021/12/12 11:52:01;;;;;;;7.10;6.35;;;;;;;3.81;100.00;101588.47;4843641;29;20754;-80
2021/12/12 11:54:59;;;;;;;7.60;6.47;;;;;;;3.81;100.00;101579.63;4828130;29;20186;-80
2021/12/12 11:57:33;;;;;;;7.47;6.78;;;;;;;3.78;100.00;101588.44;4873062;29;20757;-80
2021/12/12 12:00:14;;;;;;;6.80;6.10;;;;;;;3.80;100.00;101581.38;4859387;29;20242;-80
2021/12/12 12:03:12;;;;;;;7.32;6.60;;;;;;;3.82;100.00;101589.34;4859537;29;20190;-82
2021/12/12 12:05:56;;;;;;;8.25;7.45;;;;;;;3.81;100.00;101591.13;4826873;29;20635;-79